createdAt,value
2018-07-28T00:02:07.236Z,20.91
2018-07-28T00:04:40.451Z,20.64
2018-07-28T00:07:07.803Z,20.56
2018-07-28T00:09:34.837Z,20.59
2018-07-28T00:12:02.003Z,20.59
2018-07-28T00:14:30.968Z,20.57
2018-07-28T00:16:58.754Z,21.07
2018-07-28T00:19:25.850Z,20.71
2018-07-28T00:21:52.928Z,21.19
2018-07-28T00:24:20.359Z,21.51
2018-07-28T00:26:49.176Z,20.99
2018-07-28T00:29:19.820Z,21.55
2018-07-28T00:31:49.861Z,21.01
2018-07-28T00:34:17.022Z,20.99
2018-07-28T00:36:44.126Z,20.90
2018-07-28T00:39:13.013Z,20.80
2018-07-28T00:41:43.155Z,21.16
2018-07-28T00:44:11.221Z,20.78
2018-07-28T00:46:39.664Z,20.86
2018-07-28T00:49:08.674Z,20.79
2018-07-28T00:51:37.698Z,20.58
2018-07-28T00:54:04.776Z,20.65
2018-07-28T00:56:32.135Z,20.59
2018-07-28T00:58:59.341Z,21.16
2018-07-28T01:01:27.270Z,20.57
2018-07-28T01:03:55.260Z,21.11
2018-07-28T01:06:22.408Z,21.18
2018-07-28T01:08:49.694Z,20.61
2018-07-28T01:11:18.691Z,20.36
2018-07-28T01:13:46.284Z,20.94
2018-07-28T01:16:15.299Z,20.48
2018-07-28T01:18:43.416Z,20.29
2018-07-28T01:21:11.620Z,20.24
2018-07-28T01:23:40.805Z,20.15
2018-07-28T01:26:09.913Z,20.08
2018-07-28T01:28:42.711Z,20.27
2018-07-28T01:31:09.950Z,20.30
2018-07-28T01:33:37.964Z,20.79
2018-07-28T01:36:05.061Z,20.10
2018-07-28T01:38:32.100Z,19.93
2018-07-28T01:40:59.276Z,19.96
2018-07-28T01:43:28.252Z,19.86
2018-07-28T01:45:55.294Z,19.96
2018-07-28T01:48:23.209Z,19.85
2018-07-28T01:50:51.313Z,19.90
2018-07-28T01:53:19.718Z,19.99
2018-07-28T01:55:48.943Z,19.90
2018-07-28T01:58:20.644Z,19.88
2018-07-28T02:00:47.901Z,19.90
2018-07-28T02:03:15.231Z,19.97
2018-07-28T02:05:42.348Z,20.59
2018-07-28T02:08:11.255Z,20.29
2018-07-28T02:10:40.215Z,20.67
2018-07-28T02:13:08.295Z,20.74
2018-07-28T02:15:36.316Z,20.05
2018-07-28T02:18:04.312Z,19.97
2018-07-28T02:20:31.400Z,19.78
2018-07-28T02:22:59.267Z,19.66
2018-07-28T02:25:26.524Z,19.67
2018-07-28T02:27:53.952Z,19.74
2018-07-28T02:30:22.042Z,19.84
2018-07-28T02:32:49.479Z,20.25
2018-07-28T02:35:16.641Z,20.42
2018-07-28T02:37:43.710Z,19.94
2018-07-28T02:40:10.774Z,20.55
2018-07-28T02:42:38.889Z,20.28
2018-07-28T02:45:05.960Z,20.60
2018-07-28T02:47:33.018Z,20.60
2018-07-28T02:50:00.798Z,20.23
2018-07-28T02:52:27.926Z,19.91
2018-07-28T02:54:56.848Z,19.52
2018-07-28T02:57:26.962Z,19.84
2018-07-28T02:59:54.844Z,20.13
2018-07-28T03:02:21.987Z,20.24
2018-07-28T03:04:50.104Z,20.03
2018-07-28T03:07:17.191Z,19.80
2018-07-28T03:09:44.252Z,19.63
2018-07-28T03:12:11.276Z,19.33
2018-07-28T03:14:38.458Z,19.02
2018-07-28T03:17:05.621Z,19.11
2018-07-28T03:19:32.872Z,19.23
2018-07-28T03:22:03.933Z,19.10
2018-07-28T03:24:31.039Z,19.07
2018-07-28T03:26:58.153Z,19.15
2018-07-28T03:29:25.245Z,19.12
2018-07-28T03:31:52.321Z,19.17
2018-07-28T03:34:20.186Z,19.16
2018-07-28T03:36:47.296Z,19.09
2018-07-28T03:39:18.166Z,19.44
2018-07-28T03:41:45.752Z,19.07
2018-07-28T03:44:12.869Z,19.03
2018-07-28T03:46:43.742Z,19.13
2018-07-28T03:49:10.878Z,18.92
2018-07-28T03:51:40.846Z,19.18
2018-07-28T03:54:08.084Z,19.46
2018-07-28T03:56:35.243Z,19.77
2018-07-28T03:59:02.329Z,19.91
2018-07-28T04:01:29.383Z,20.44
2018-07-28T04:03:57.228Z,20.27
2018-07-28T04:06:24.360Z,20.33
2018-07-28T04:08:51.417Z,20.91
2018-07-28T04:11:18.542Z,21.13
2018-07-28T04:13:48.615Z,20.73
2018-07-28T04:16:19.564Z,20.71
2018-07-28T04:18:52.762Z,21.00
2018-07-28T04:21:20.810Z,20.71
2018-07-28T04:23:47.899Z,20.41
2018-07-28T04:26:15.113Z,20.75
2018-07-28T04:28:43.785Z,20.88
2018-07-28T04:31:17.241Z,20.98
2018-07-28T04:33:44.360Z,21.31
2018-07-28T04:36:13.274Z,21.09
2018-07-28T04:38:41.274Z,21.46
2018-07-28T04:41:08.348Z,21.76
2018-07-28T04:43:35.419Z,21.91
2018-07-28T04:46:03.527Z,22.79
2018-07-28T04:48:32.335Z,22.29
2018-07-28T04:50:59.418Z,22.43
2018-07-28T04:53:26.524Z,22.83
2018-07-28T04:55:54.577Z,23.36
2018-07-28T04:58:21.652Z,22.70
2018-07-28T05:00:52.144Z,23.43
2018-07-28T05:03:19.280Z,23.55
2018-07-28T05:05:46.390Z,23.05
2018-07-28T05:08:13.442Z,23.37
2018-07-28T05:10:40.753Z,23.41
2018-07-28T05:13:08.932Z,23.32
2018-07-28T05:15:36.826Z,23.59
2018-07-28T05:18:08.548Z,24.69
2018-07-28T05:20:35.646Z,24.98
2018-07-28T05:23:02.790Z,24.87
2018-07-28T05:25:31.762Z,25.26
2018-07-28T05:27:59.857Z,26.24
2018-07-28T05:30:27.869Z,26.29
2018-07-28T05:32:55.044Z,26.16
2018-07-28T05:35:22.210Z,25.74
2018-07-28T05:37:49.952Z,25.52
2018-07-28T05:40:17.152Z,25.65
2018-07-28T05:42:48.349Z,25.21
2018-07-28T05:45:17.316Z,24.86
2018-07-28T05:47:45.370Z,24.58
2018-07-28T05:50:12.518Z,24.51
2018-07-28T05:52:44.202Z,24.21
2018-07-28T05:55:17.417Z,24.04
2018-07-28T05:57:45.461Z,22.97
2018-07-28T06:00:15.568Z,22.48
2018-07-28T06:02:42.670Z,22.01
2018-07-28T06:05:09.739Z,21.83
2018-07-28T06:07:36.900Z,21.92
2018-07-28T06:10:04.140Z,22.05
2018-07-28T06:12:31.451Z,22.21
2018-07-28T06:14:59.496Z,22.24
2018-07-28T06:17:29.589Z,22.39
2018-07-28T06:19:57.273Z,22.57
2018-07-28T06:22:24.332Z,22.68
2018-07-28T06:24:51.400Z,22.98
2018-07-28T06:27:18.544Z,23.17
2018-07-28T06:29:45.637Z,23.32
2018-07-28T06:32:12.745Z,23.50
2018-07-28T06:34:41.314Z,23.55
2018-07-28T06:37:09.491Z,23.55
2018-07-28T06:39:36.725Z,23.14
2018-07-28T06:42:06.793Z,22.85
2018-07-28T06:44:33.924Z,22.53
2018-07-28T06:47:01.155Z,22.45
2018-07-28T06:49:28.276Z,22.48
2018-07-28T06:51:55.982Z,22.83
2018-07-28T06:54:23.964Z,22.83
2018-07-28T06:56:52.960Z,22.96
2018-07-28T06:59:20.094Z,23.40
2018-07-28T07:01:53.060Z,23.21
2018-07-28T07:04:20.872Z,23.82
2018-07-28T07:06:53.975Z,24.13
2018-07-28T07:09:21.972Z,23.77
2018-07-28T07:11:49.020Z,23.93
2018-07-28T07:14:16.123Z,23.84
2018-07-28T07:16:47.085Z,23.75
2018-07-28T07:19:14.277Z,24.16
2018-07-28T07:21:42.989Z,24.16
2018-07-28T07:24:10.228Z,24.73
2018-07-28T07:26:38.417Z,24.79
2018-07-28T07:29:05.661Z,24.80
2018-07-28T07:31:34.817Z,25.05
2018-07-28T07:34:03.947Z,25.26
2018-07-28T07:36:31.042Z,25.39
2018-07-28T07:38:58.076Z,25.77
2018-07-28T07:41:25.186Z,25.32
2018-07-28T07:43:52.487Z,25.68
2018-07-28T07:46:19.616Z,25.93
2018-07-28T07:48:46.718Z,26.30
2018-07-28T07:51:13.781Z,26.32
2018-07-28T07:53:42.581Z,26.80
2018-07-28T07:56:09.725Z,26.42
2018-07-28T07:58:38.446Z,26.52
2018-07-28T08:01:07.608Z,27.02
2018-07-28T08:03:34.777Z,26.98
2018-07-28T08:06:01.948Z,27.49
2018-07-28T08:08:29.007Z,26.92
2018-07-28T08:10:56.088Z,26.76
2018-07-28T08:13:25.046Z,26.89
2018-07-28T08:15:52.936Z,26.99
2018-07-28T08:18:23.123Z,27.10
2018-07-28T08:20:51.132Z,27.76
2018-07-28T08:23:18.961Z,28.31
2018-07-28T08:25:46.022Z,28.14
2018-07-28T08:28:13.341Z,27.39
2018-07-28T08:30:41.941Z,27.90
2018-07-28T08:33:08.984Z,27.51
2018-07-28T08:35:36.047Z,27.74
2018-07-28T08:38:04.555Z,27.61
2018-07-28T08:40:32.430Z,27.25
2018-07-28T08:42:59.618Z,26.96
2018-07-28T08:45:26.750Z,26.88
2018-07-28T08:47:53.895Z,27.80
2018-07-28T08:50:21.134Z,27.73
2018-07-28T08:52:48.255Z,28.30
2018-07-28T08:55:15.395Z,28.10
2018-07-28T08:57:42.599Z,28.08
2018-07-28T09:00:10.617Z,28.43
2018-07-28T09:02:38.452Z,28.17
2018-07-28T09:05:07.487Z,28.47
2018-07-28T09:07:34.644Z,28.41
2018-07-28T09:10:01.773Z,28.96
2018-07-28T09:12:29.021Z,29.75
2018-07-28T09:14:57.004Z,29.93
2018-07-28T09:17:25.062Z,30.70
2018-07-28T09:19:52.167Z,30.52
2018-07-28T09:22:21.112Z,29.77
2018-07-28T09:24:49.977Z,30.51
2018-07-28T09:27:17.035Z,29.55
2018-07-28T09:29:44.100Z,29.18
2018-07-28T09:32:11.245Z,29.24
2018-07-28T09:34:39.024Z,29.38
2018-07-28T09:37:07.060Z,29.30
2018-07-28T09:39:34.221Z,29.15
2018-07-28T09:42:02.024Z,29.55
2018-07-28T09:44:29.150Z,29.85
2018-07-28T09:46:56.263Z,29.33
2018-07-28T09:49:23.401Z,29.22
2018-07-28T09:51:51.291Z,29.51
2018-07-28T09:54:18.361Z,29.90
2018-07-28T09:56:45.496Z,30.79
2018-07-28T09:59:12.682Z,31.09
2018-07-28T10:01:39.850Z,31.27
2018-07-28T10:04:08.017Z,30.97
2018-07-28T10:06:35.076Z,30.54
2018-07-28T10:09:02.144Z,30.39
2018-07-28T10:11:29.219Z,29.70
2018-07-28T10:13:56.362Z,30.07
2018-07-28T10:16:23.666Z,30.50
2018-07-28T10:18:50.655Z,30.50
2018-07-28T10:21:17.898Z,29.68
2018-07-28T10:23:47.034Z,29.91
2018-07-28T10:26:14.197Z,29.55
2018-07-28T10:28:41.290Z,29.87
2018-07-28T10:31:12.138Z,30.38
2018-07-28T10:33:40.296Z,30.01
2018-07-28T10:36:07.561Z,30.68
2018-07-28T10:38:34.629Z,30.61
2018-07-28T10:41:01.775Z,30.06
2018-07-28T10:43:28.844Z,30.21
2018-07-28T10:45:55.962Z,29.98
2018-07-28T10:48:25.065Z,30.05
2018-07-28T10:50:53.424Z,29.99
2018-07-28T10:53:22.080Z,30.36
2018-07-28T10:55:49.211Z,30.40
2018-07-28T10:58:16.298Z,30.87
2018-07-28T11:00:44.380Z,31.05
2018-07-28T11:03:11.447Z,31.21
2018-07-28T11:05:38.547Z,31.33
2018-07-28T11:08:06.671Z,32.38
2018-07-28T11:10:34.535Z,31.69
2018-07-28T11:13:02.516Z,32.70
2018-07-28T11:15:29.601Z,32.27
2018-07-28T11:17:56.717Z,31.94
2018-07-28T11:20:24.871Z,31.70
2018-07-28T11:22:52.542Z,31.35
2018-07-28T11:25:19.696Z,31.13
2018-07-28T11:27:46.885Z,31.26
2018-07-28T11:30:13.966Z,31.10
2018-07-28T11:32:52.748Z,30.82
2018-07-28T11:35:31.517Z,31.21
2018-07-28T11:38:20.620Z,31.26
2018-07-28T11:40:59.432Z,31.60
2018-07-28T11:43:38.875Z,30.64
2018-07-28T11:46:05.967Z,30.50
2018-07-28T11:48:33.143Z,31.02
2018-07-28T11:51:00.210Z,30.97
2018-07-28T11:53:27.277Z,31.47
2018-07-28T11:55:54.369Z,31.23
2018-07-28T11:58:22.114Z,30.68
2018-07-28T12:00:50.147Z,30.52
2018-07-28T12:03:17.229Z,30.96
2018-07-28T12:05:46.321Z,30.91
2018-07-28T12:08:13.351Z,31.94
2018-07-28T12:10:40.486Z,31.86
2018-07-28T12:13:07.588Z,32.36
2018-07-28T12:15:34.862Z,31.55
2018-07-28T12:18:05.688Z,31.53
2018-07-28T12:20:32.751Z,31.59
2018-07-28T12:23:00.856Z,31.63
2018-07-28T12:25:28.025Z,31.36
2018-07-28T12:27:55.108Z,31.50
2018-07-28T12:30:22.158Z,31.74
2018-07-28T12:32:49.284Z,31.09
2018-07-28T12:35:17.139Z,31.54
2018-07-28T12:37:44.380Z,31.25
2018-07-28T12:40:11.485Z,31.55
2018-07-28T12:42:38.626Z,31.76
2018-07-28T12:45:05.879Z,31.74
2018-07-28T12:47:33.040Z,32.02
2018-07-28T12:50:00.224Z,31.68
2018-07-28T12:52:27.303Z,31.79
2018-07-28T12:54:57.822Z,32.00
2018-07-28T12:57:25.407Z,31.81
2018-07-28T12:59:54.235Z,31.78
2018-07-28T13:02:21.326Z,31.53
2018-07-28T13:04:48.500Z,31.59
2018-07-28T13:07:15.544Z,31.12
2018-07-28T13:09:42.630Z,30.95
2018-07-28T13:12:09.700Z,31.15
2018-07-28T13:14:38.621Z,31.57
2018-07-28T13:17:05.718Z,31.33
2018-07-28T13:19:32.788Z,31.31
2018-07-28T13:21:59.973Z,31.51
2018-07-28T13:24:27.597Z,31.05
2018-07-28T13:26:54.758Z,31.05
2018-07-28T13:29:23.674Z,31.53
2018-07-28T13:31:50.786Z,31.22
2018-07-28T13:34:17.873Z,31.21
2018-07-28T13:36:45.583Z,31.46
2018-07-28T13:39:12.764Z,31.68
2018-07-28T13:41:48.206Z,31.56
2018-07-28T13:44:15.254Z,31.49
2018-07-28T13:46:45.569Z,32.07
2018-07-28T13:49:12.666Z,32.04
2018-07-28T13:51:39.776Z,32.13
2018-07-28T13:54:06.928Z,31.64
2018-07-28T13:56:34.059Z,32.00
2018-07-28T13:59:01.715Z,31.68
2018-07-28T14:01:37.607Z,31.48
2018-07-28T14:04:05.678Z,31.43
2018-07-28T14:06:32.804Z,31.39
2018-07-28T14:09:00.731Z,31.27
2018-07-28T14:11:27.828Z,31.32
2018-07-28T14:13:54.917Z,31.35
2018-07-28T14:16:21.943Z,30.86
2018-07-28T14:18:49.036Z,30.96
2018-07-28T14:21:20.789Z,30.87
2018-07-28T14:23:48.805Z,30.94
2018-07-28T14:26:15.904Z,30.90
2018-07-28T14:28:42.967Z,31.44
2018-07-28T14:31:10.045Z,31.57
2018-07-28T14:33:37.241Z,31.44
2018-07-28T14:36:10.631Z,30.83
2018-07-28T14:38:37.757Z,31.00
2018-07-28T14:41:06.775Z,30.63
2018-07-28T14:43:33.919Z,31.39
2018-07-28T14:46:07.351Z,31.28
2018-07-28T14:48:41.626Z,31.39
2018-07-28T14:51:09.669Z,30.75
2018-07-28T14:53:36.808Z,30.30
2018-07-28T14:56:03.995Z,30.21
2018-07-28T14:58:33.135Z,30.49
2018-07-28T15:01:01.171Z,30.28
2018-07-28T15:03:28.333Z,30.45
2018-07-28T15:06:01.696Z,30.34
2018-07-28T15:08:29.896Z,30.36
2018-07-28T15:11:01.037Z,30.29
2018-07-28T15:13:29.140Z,30.28
2018-07-28T15:15:57.182Z,29.93
2018-07-28T15:18:41.186Z,29.70
2018-07-28T15:21:09.292Z,29.66
2018-07-28T15:23:36.410Z,29.58
2018-07-28T15:26:03.635Z,29.75
2018-07-28T15:28:31.149Z,29.39
2018-07-28T15:30:58.409Z,29.78
2018-07-28T15:33:26.515Z,30.28
2018-07-28T15:35:54.339Z,30.32
2018-07-28T15:38:22.368Z,30.16
2018-07-28T15:40:49.427Z,30.06
2018-07-28T15:43:17.607Z,30.18
2018-07-28T15:45:47.887Z,29.47
2018-07-28T15:48:16.031Z,29.44
2018-07-28T15:50:43.801Z,29.46
2018-07-28T15:53:10.978Z,29.55
2018-07-28T15:55:38.267Z,29.47
2018-07-28T15:58:05.495Z,29.24
2018-07-28T16:00:32.698Z,29.25
2018-07-28T16:02:59.844Z,28.92
2018-07-28T16:05:30.011Z,28.77
2018-07-28T16:10:27.328Z,28.94
2018-07-28T16:12:54.394Z,29.02
2018-07-28T16:15:21.884Z,28.83
2018-07-28T16:17:50.877Z,28.98
2018-07-28T16:20:17.937Z,28.60
2018-07-28T16:22:44.989Z,28.57
2018-07-28T16:25:12.303Z,28.46
2018-07-28T16:27:39.499Z,28.51
2018-07-28T16:30:07.907Z,28.56
2018-07-28T16:32:35.701Z,28.27
2018-07-28T16:35:07.059Z,28.32
2018-07-28T16:37:35.970Z,28.20
2018-07-28T16:40:03.280Z,28.16
2018-07-28T16:42:31.390Z,28.41
2018-07-28T16:45:00.516Z,28.07
2018-07-28T16:47:30.626Z,28.31
2018-07-28T16:49:57.728Z,27.99
2018-07-28T16:52:24.981Z,28.15
2018-07-28T16:54:52.407Z,27.75
2018-07-28T16:57:20.842Z,27.43
2018-07-28T16:59:47.952Z,27.42
2018-07-28T17:02:16.910Z,27.37
2018-07-28T17:04:44.994Z,27.69
2018-07-28T17:07:12.182Z,27.63
2018-07-28T17:09:42.283Z,27.69
2018-07-28T17:12:09.407Z,27.84
2018-07-28T17:14:36.547Z,28.08
2018-07-28T17:17:03.886Z,28.19
2018-07-28T17:19:31.193Z,27.98
2018-07-28T17:21:58.805Z,28.01
2018-07-28T17:24:29.868Z,27.90
2018-07-28T17:27:04.329Z,28.03
2018-07-28T17:29:35.514Z,27.91
2018-07-28T17:32:02.644Z,27.91
2018-07-28T17:34:29.827Z,27.86
2018-07-28T17:36:57.900Z,28.29
2018-07-28T17:39:25.917Z,28.05
2018-07-28T17:41:53.920Z,27.84
2018-07-28T17:44:24.131Z,28.02
2018-07-28T17:46:51.197Z,28.16
2018-07-28T17:49:18.310Z,27.78
2018-07-28T17:51:45.381Z,27.73
2018-07-28T17:54:13.414Z,27.67
2018-07-28T17:56:40.623Z,27.69
2018-07-28T17:59:08.666Z,27.64
2018-07-28T18:01:35.746Z,27.62
2018-07-28T18:04:03.014Z,28.09
2018-07-28T18:06:33.136Z,28.83
2018-07-28T18:09:04.903Z,30.19
2018-07-28T18:11:32.165Z,31.12
2018-07-28T18:13:59.234Z,30.63
2018-07-28T18:16:27.428Z,29.77
2018-07-28T18:18:55.483Z,29.10
2018-07-28T18:21:22.758Z,28.59
2018-07-28T18:23:49.992Z,27.95
2018-07-28T18:26:17.156Z,27.82
2018-07-28T18:28:50.401Z,28.06
2018-07-28T18:31:19.287Z,27.51
2018-07-28T18:33:46.540Z,27.62
2018-07-28T18:36:14.487Z,27.59
2018-07-28T18:38:41.701Z,28.23
2018-07-28T18:41:08.984Z,28.14
2018-07-28T18:43:40.316Z,28.63
2018-07-28T18:46:09.391Z,28.27
2018-07-28T18:48:37.424Z,28.23
2018-07-28T18:51:05.652Z,27.97
2018-07-28T18:53:32.910Z,27.84
2018-07-28T18:56:00.268Z,27.95
2018-07-28T18:58:27.399Z,27.26
2018-07-28T19:00:54.663Z,27.10
2018-07-28T19:03:21.765Z,26.88
2018-07-28T19:05:48.822Z,26.77
2018-07-28T19:08:15.948Z,26.48
2018-07-28T19:10:43.212Z,26.32
2018-07-28T19:13:16.515Z,26.77
2018-07-28T19:15:44.391Z,26.35
2018-07-28T19:18:17.182Z,26.10
2018-07-28T19:20:44.418Z,25.94
2018-07-28T19:23:17.103Z,25.81
2018-07-28T19:25:44.171Z,25.67
2018-07-28T19:28:17.060Z,25.58
2018-07-28T19:30:44.102Z,25.55
2018-07-28T19:33:11.241Z,25.50
2018-07-28T19:35:44.189Z,25.46
2018-07-28T19:38:11.244Z,25.30
2018-07-28T19:40:38.335Z,25.43
2018-07-28T19:43:05.388Z,25.18
2018-07-28T19:45:32.440Z,25.04
2018-07-28T19:47:59.621Z,24.93
2018-07-28T19:50:26.726Z,24.90
2018-07-28T19:52:53.892Z,25.37
2018-07-28T19:55:20.949Z,24.91
2018-07-28T19:57:48.093Z,24.67
2018-07-28T20:00:15.203Z,24.62
2018-07-28T20:02:42.447Z,25.01
2018-07-28T20:05:09.634Z,24.58
2018-07-28T20:07:37.802Z,24.47
2018-07-28T20:10:05.950Z,24.45
2018-07-28T20:12:33.009Z,24.40
2018-07-28T20:15:00.214Z,24.37
2018-07-28T20:17:27.284Z,24.23
2018-07-28T20:19:54.957Z,24.19
2018-07-28T20:22:22.021Z,24.06
2018-07-28T20:24:49.094Z,23.96
2018-07-28T20:27:16.288Z,23.78
2018-07-28T20:29:43.298Z,23.58
2018-07-28T20:32:10.409Z,23.53
2018-07-28T20:34:37.904Z,23.46
2018-07-28T20:37:05.083Z,23.39
2018-07-28T20:39:32.305Z,23.33
2018-07-28T20:42:00.281Z,23.23
2018-07-28T20:44:28.439Z,23.18
2018-07-28T20:46:55.669Z,23.21
2018-07-28T20:49:22.741Z,23.17
2018-07-28T20:51:49.903Z,23.16
2018-07-28T20:54:17.009Z,23.12
2018-07-28T20:56:44.014Z,22.98
2018-07-28T20:59:11.033Z,22.93
2018-07-28T21:01:38.017Z,22.95
2018-07-28T21:04:05.140Z,22.96
2018-07-28T21:06:32.148Z,22.94
2018-07-28T21:08:59.148Z,22.90
2018-07-28T21:11:26.118Z,22.83
2018-07-28T21:13:53.162Z,23.16
2018-07-28T21:16:20.226Z,23.15
2018-07-28T21:18:47.199Z,22.66
2018-07-28T21:21:14.177Z,22.50
2018-07-28T21:23:41.185Z,22.35
2018-07-28T21:26:08.220Z,22.21
2018-07-28T21:28:35.212Z,22.37
2018-07-28T21:31:02.192Z,22.21
2018-07-28T21:33:29.440Z,22.16
2018-07-28T21:35:56.451Z,22.16
2018-07-28T21:38:23.433Z,22.03
2018-07-28T21:40:50.438Z,21.91
2018-07-28T21:43:17.676Z,21.83
2018-07-28T21:45:44.680Z,21.80
2018-07-28T21:48:11.689Z,21.74
2018-07-28T21:50:38.725Z,21.76
2018-07-28T21:53:05.707Z,22.03
2018-07-28T21:55:32.841Z,21.86
2018-07-28T21:57:59.815Z,21.77
2018-07-28T22:00:30.017Z,21.76
2018-07-28T22:02:57.017Z,21.64
2018-07-28T22:05:24.026Z,21.54
2018-07-28T22:07:51.319Z,21.47
2018-07-28T22:10:18.319Z,21.40
2018-07-28T22:12:45.284Z,21.41
2018-07-28T22:15:12.261Z,21.36
2018-07-28T22:17:39.288Z,21.39
2018-07-28T22:20:06.277Z,21.40
2018-07-28T22:22:33.245Z,21.46
2018-07-28T22:25:00.223Z,21.41
2018-07-28T22:27:27.264Z,21.31
2018-07-28T22:29:54.232Z,21.21
2018-07-28T22:32:21.243Z,21.14
2018-07-28T22:34:48.236Z,21.21
2018-07-28T22:37:15.205Z,21.20
2018-07-28T22:39:42.197Z,21.07
2018-07-28T22:42:09.180Z,21.00
2018-07-28T22:44:36.172Z,20.92
2018-07-28T22:47:03.241Z,20.89
2018-07-28T22:49:30.244Z,20.84
2018-07-28T22:51:57.377Z,20.77
2018-07-28T22:54:24.425Z,20.72
2018-07-28T22:56:51.477Z,20.59
2018-07-28T22:59:18.449Z,20.47
2018-07-28T23:01:45.421Z,20.41
2018-07-28T23:04:12.408Z,20.42
2018-07-28T23:06:39.384Z,20.50
2018-07-28T23:09:07.990Z,20.69
2018-07-28T23:11:35.047Z,20.68
2018-07-28T23:14:02.164Z,20.80
2018-07-28T23:16:29.143Z,20.56
2018-07-28T23:18:56.118Z,20.50
2018-07-28T23:21:23.144Z,20.48
2018-07-28T23:23:50.118Z,20.48
2018-07-28T23:26:17.084Z,20.49
2018-07-28T23:28:44.076Z,20.48
2018-07-28T23:31:11.190Z,20.80
2018-07-28T23:33:38.168Z,20.75
2018-07-28T23:36:05.170Z,20.73
2018-07-28T23:38:32.169Z,20.80
2018-07-28T23:40:59.156Z,20.86
2018-07-28T23:43:26.153Z,20.95
2018-07-28T23:45:53.165Z,20.86
2018-07-28T23:48:23.457Z,20.85
2018-07-28T23:50:50.418Z,20.82
2018-07-28T23:53:17.756Z,20.77
2018-07-28T23:55:44.729Z,20.79
2018-07-28T23:58:11.701Z,20.82
